About Axiom Aviation

This author has not yet filled in any details.
So far Axiom Aviation has created 10 blog entries.

Why we love flying in the winter!

2017-01-16T18:35:58+00:00October 27th, 2016|

Current METAR

KOGD 111653Z 15005KT 5SM HZ OVC016 M01/M04 A3033 RMK AO2 SLP288 T10111044